Time;durP1;ratioP1;P1;durP2;ratioP2;P2;SDS_P1;SDS_P2;PMS_P1;PMS_P2;Temp;Humidity;BMP_temperature;BMP_pressure;BME280_temperature;BME280_humidity;BME280_pressure;Samples;Min_cycle;Max_cycle;Signal;HPM_P1;HPM_P2
2021/08/20 00:02:02;;;;;;;7.13;2.10;;;16.20;99.90;;;;;;5125486;27;20201;-45
2021/08/20 00:04:29;;;;;;;4.07;2.40;;;16.20;99.90;;;;;;5115085;27;20173;-45
2021/08/20 00:06:55;;;;;;;5.03;2.17;;;16.10;99.90;;;;;;5136009;27;20220;-44
2021/08/20 00:09:23;;;;;;;2.70;2.17;;;16.10;99.90;;;;;;5143124;27;20189;-45
2021/08/20 00:11:49;;;;;;;2.63;1.87;;;16.10;99.90;;;;;;5116465;27;20205;-43
2021/08/20 00:14:17;;;;;;;6.00;2.00;;;16.10;99.90;;;;;;5123597;27;20554;-43
2021/08/20 00:16:44;;;;;;;7.07;2.50;;;16.10;99.90;;;;;;5103818;27;20197;-43
2021/08/20 00:19:11;;;;;;;3.20;1.93;;;16.10;99.90;;;;;;5116069;27;20196;-46
2021/08/20 00:21:38;;;;;;;6.87;2.00;;;16.10;99.90;;;;;;5106975;27;20980;-43
2021/08/20 00:24:06;;;;;;;5.37;2.17;;;16.10;99.90;;;;;;5109724;27;20200;-45
2021/08/20 00:26:33;;;;;;;2.47;1.90;;;16.00;99.90;;;;;;5108160;27;20216;-43
2021/08/20 00:29:00;;;;;;;5.40;2.37;;;16.00;99.90;;;;;;5124491;27;20184;-43
2021/08/20 00:31:31;;;;;;;4.03;2.13;;;16.00;99.90;;;;;;5122853;27;20221;-44
2021/08/20 00:34:00;;;;;;;3.50;2.60;;;16.00;99.90;;;;;;5124616;27;20192;-49
2021/08/20 00:36:26;;;;;;;2.20;1.90;;;16.00;99.90;;;;;;5122323;27;20192;-42
2021/08/20 00:38:53;;;;;;;2.90;2.60;;;16.00;99.90;;;;;;5123619;27;20201;-44
2021/08/20 00:41:20;;;;;;;3.83;2.30;;;15.90;99.90;;;;;;5119004;27;20201;-43
2021/08/20 00:43:47;;;;;;;3.70;2.40;;;15.90;99.90;;;;;;5113423;27;20212;-45
2021/08/20 00:46:14;;;;;;;3.43;2.43;;;15.80;99.90;;;;;;5122308;27;20283;-44
2021/08/20 00:48:42;;;;;;;4.77;2.43;;;15.80;99.90;;;;;;5125393;27;20528;-43
2021/08/20 00:51:15;;;;;;;4.73;2.40;;;15.70;99.90;;;;;;5115940;27;20220;-49
2021/08/20 00:53:42;;;;;;;4.33;2.23;;;15.70;99.90;;;;;;5123260;27;20192;-44
2021/08/20 00:56:09;;;;;;;5.73;2.40;;;15.60;99.90;;;;;;5098730;27;20189;-42
2021/08/20 00:58:36;;;;;;;3.23;2.17;;;15.60;99.90;;;;;;5098824;27;20204;-44
2021/08/20 01:01:04;;;;;;;3.93;2.23;;;15.60;99.90;;;;;;5116413;27;20212;-45
2021/08/20 01:03:32;;;;;;;8.43;2.50;;;15.60;99.90;;;;;;5121727;27;20212;-44
2021/08/20 01:06:02;;;;;;;3.90;2.30;;;15.60;99.90;;;;;;5123464;27;20300;-50
2021/08/20 01:08:30;;;;;;;3.17;2.47;;;15.50;99.90;;;;;;5115825;27;20343;-46
2021/08/20 01:10:58;;;;;;;4.07;2.30;;;15.50;99.90;;;;;;5128189;27;20676;-43
2021/08/20 01:13:27;;;;;;;2.60;2.40;;;15.50;99.90;;;;;;5136633;27;20184;-43
2021/08/20 01:15:54;;;;;;;3.10;2.13;;;15.40;99.90;;;;;;5112081;27;20647;-44
2021/08/20 01:18:25;;;;;;;3.33;2.57;;;15.40;99.90;;;;;;5120446;27;20196;-43
2021/08/20 01:20:56;;;;;;;2.93;2.10;;;15.40;99.90;;;;;;5122367;27;20689;-41
2021/08/20 01:23:24;;;;;;;3.80;2.30;;;15.30;99.90;;;;;;5117902;27;20197;-47
2021/08/20 01:25:52;;;;;;;3.23;2.30;;;15.30;99.90;;;;;;5125454;27;20184;-44
2021/08/20 01:28:21;;;;;;;4.40;2.53;;;15.30;99.90;;;;;;5096787;28;20217;-42
2021/08/20 01:30:48;;;;;;;4.00;2.53;;;15.20;99.90;;;;;;5099724;27;20692;-42
2021/08/20 01:33:15;;;;;;;5.37;2.37;;;15.20;99.90;;;;;;5112742;27;20976;-42
2021/08/20 01:35:42;;;;;;;6.20;2.50;;;15.20;99.90;;;;;;5124181;27;20271;-46
2021/08/20 01:38:09;;;;;;;5.40;2.70;;;15.10;99.90;;;;;;5113484;27;20204;-47
2021/08/20 01:40:36;;;;;;;6.47;3.03;;;15.10;99.90;;;;;;5128797;27;20220;-44
2021/08/20 01:43:05;;;;;;;6.20;2.93;;;15.10;99.90;;;;;;5123393;27;20581;-44
2021/08/20 01:45:32;;;;;;;7.57;3.00;;;15.10;99.90;;;;;;5101709;27;20257;-44
2021/08/20 01:47:58;;;;;;;4.80;2.63;;;15.20;99.90;;;;;;5097254;27;20230;-43
2021/08/20 01:50:26;;;;;;;6.63;3.40;;;15.10;99.90;;;;;;5128271;27;20212;-42
2021/08/20 01:52:53;;;;;;;5.23;3.00;;;15.10;99.90;;;;;;5118598;27;20936;-44
2021/08/20 01:55:19;;;;;;;5.83;3.50;;;15.10;99.90;;;;;;5122994;27;20189;-45
2021/08/20 01:57:46;;;;;;;4.63;3.47;;;15.10;99.90;;;;;;5119904;27;20188;-44
2021/08/20 02:00:16;;;;;;;3.50;3.13;;;15.10;99.90;;;;;;5122107;27;20213;-44
2021/08/20 02:02:42;;;;;;;5.70;3.80;;;15.10;99.90;;;;;;5114370;27;20203;-46
2021/08/20 02:05:14;;;;;;;5.07;3.13;;;15.10;99.90;;;;;;5125360;27;20200;-44
2021/08/20 02:07:41;;;;;;;4.53;3.20;;;15.10;99.90;;;;;;5116109;27;20216;-45
2021/08/20 02:10:10;;;;;;;3.80;3.30;;;15.10;99.90;;;;;;5127018;27;20216;-48
2021/08/20 02:12:37;;;;;;;6.17;3.60;;;15.10;99.90;;;;;;5124686;27;20197;-43
2021/08/20 02:15:08;;;;;;;8.77;3.70;;;15.10;99.90;;;;;;5108966;27;20188;-46
2021/08/20 02:17:36;;;;;;;5.73;4.23;;;15.10;99.90;;;;;;5109343;27;20193;-45
2021/08/20 02:20:03;;;;;;;7.23;4.17;;;15.10;99.90;;;;;;5126032;27;20593;-43
2021/08/20 02:22:31;;;;;;;4.70;3.90;;;15.10;99.90;;;;;;5118783;27;20236;-42
2021/08/20 02:24:58;;;;;;;5.70;3.97;;;15.10;99.90;;;;;;5123688;27;20197;-46
2021/08/20 02:27:25;;;;;;;6.07;3.97;;;15.10;99.90;;;;;;5126231;27;20211;-45
2021/08/20 02:29:58;;;;;;;7.60;3.57;;;15.10;99.90;;;;;;5123664;27;20303;-48
2021/08/20 02:32:24;;;;;;;6.70;3.47;;;15.10;99.90;;;;;;5118306;27;20197;-44
2021/08/20 02:34:52;;;;;;;8.43;3.70;;;15.10;99.90;;;;;;5113143;27;20211;-42
2021/08/20 02:37:19;;;;;;;7.90;4.53;;;15.10;99.90;;;;;;5119262;27;20197;-44
2021/08/20 02:39:46;;;;;;;6.37;3.47;;;15.10;99.90;;;;;;5122952;27;20224;-44
2021/08/20 02:42:13;;;;;;;6.03;3.30;;;15.10;99.90;;;;;;5124033;27;20279;-44
2021/08/20 02:44:40;;;;;;;6.47;4.07;;;15.10;99.90;;;;;;5127366;27;20291;-46
2021/08/20 02:47:07;;;;;;;5.97;3.20;;;15.10;99.90;;;;;;5116431;27;20212;-45
2021/08/20 02:49:34;;;;;;;4.30;3.77;;;15.00;99.90;;;;;;5112517;27;20573;-44
2021/08/20 02:52:02;;;;;;;9.37;4.23;;;15.00;99.90;;;;;;5124448;27;20200;-43
2021/08/20 02:54:32;;;;;;;7.60;4.83;;;15.00;99.90;;;;;;5112512;27;20197;-43
2021/08/20 02:56:59;;;;;;;8.77;4.37;;;14.90;99.90;;;;;;5103095;28;20200;-49
2021/08/20 02:59:28;;;;;;;5.63;3.80;;;14.90;99.90;;;;;;5106631;27;20181;-46
2021/08/20 03:01:58;;;;;;;7.50;3.80;;;14.90;99.90;;;;;;5125901;27;20197;-43
2021/08/20 03:04:25;;;;;;;6.53;4.20;;;14.90;99.90;;;;;;5111938;27;20264;-45
2021/08/20 03:06:52;;;;;;;9.20;4.10;;;14.90;99.90;;;;;;5126571;27;20583;-46
2021/08/20 03:09:34;;;;;;;8.00;4.47;;;14.90;99.90;;;;;;5118877;27;20212;-44
2021/08/20 03:12:02;;;;;;;6.73;3.63;;;14.90;99.90;;;;;;5123090;27;20283;-47
2021/08/20 03:14:32;;;;;;;8.60;4.40;;;14.90;99.90;;;;;;5126125;27;20192;-45
2021/08/20 03:16:59;;;;;;;6.83;4.80;;;14.90;99.90;;;;;;5120584;27;20196;-44
2021/08/20 03:19:26;;;;;;;7.70;4.67;;;14.90;99.90;;;;;;5124715;27;20181;-45
2021/08/20 03:21:55;;;;;;;7.80;4.20;;;14.80;99.90;;;;;;5107157;27;20235;-44
2021/08/20 03:24:24;;;;;;;8.20;4.90;;;14.80;99.90;;;;;;5121425;27;20227;-45
2021/08/20 03:26:52;;;;;;;6.23;4.80;;;14.90;99.90;;;;;;5125994;27;20195;-49
2021/08/20 03:29:19;;;;;;;8.03;5.30;;;14.90;99.90;;;;;;5121942;27;20242;-44
2021/08/20 03:32:07;;;;;;;7.57;4.73;;;14.90;99.90;;;;;;5116690;27;20212;-43
2021/08/20 03:34:34;;;;;;;9.47;4.40;;;14.90;99.90;;;;;;5126331;27;20200;-45
2021/08/20 03:37:01;;;;;;;6.23;4.27;;;14.90;99.90;;;;;;5108797;27;20211;-46
2021/08/20 03:39:37;;;;;;;8.30;4.90;;;14.90;99.90;;;;;;5119237;27;20700;-44
2021/08/20 03:42:05;;;;;;;8.20;4.83;;;14.80;99.90;;;;;;5122869;27;20279;-46
2021/08/20 03:44:34;;;;;;;6.13;4.87;;;14.80;99.90;;;;;;5125737;27;20188;-46
2021/08/20 03:47:01;;;;;;;6.83;4.87;;;14.80;99.90;;;;;;5116656;27;20225;-47
2021/08/20 03:49:27;;;;;;;8.87;5.97;;;14.90;99.90;;;;;;5119755;27;20185;-44
2021/08/20 03:51:54;;;;;;;7.43;5.00;;;14.90;99.90;;;;;;5089732;27;20193;-44
2021/08/20 03:54:26;;;;;;;8.63;5.53;;;14.80;99.90;;;;;;5122835;27;20193;-43
2021/08/20 03:56:52;;;;;;;6.77;5.07;;;14.90;99.90;;;;;;5120830;27;20197;-46
2021/08/20 03:59:24;;;;;;;8.67;4.97;;;14.80;99.90;;;;;;5123111;27;20197;-44
2021/08/20 04:01:58;;;;;;;6.90;4.53;;;14.80;99.90;;;;;;5115123;27;20669;-47
2021/08/20 04:04:25;;;;;;;12.20;5.50;;;14.80;99.90;;;;;;5123526;27;20288;-47
2021/08/20 04:06:55;;;;;;;9.13;5.73;;;14.80;99.90;;;;;;5098380;27;20235;-48
2021/08/20 04:09:23;;;;;;;7.93;5.83;;;14.80;99.90;;;;;;5124289;27;20261;-45
2021/08/20 04:12:03;;;;;;;11.07;7.07;;;14.90;99.90;;;;;;5119074;27;20208;-44
2021/08/20 04:14:37;;;;;;;10.37;6.93;;;14.90;99.90;;;;;;5098433;27;20686;-46
2021/08/20 04:17:05;;;;;;;10.47;6.77;;;14.90;99.90;;;;;;5116421;27;20297;-44
2021/08/20 04:19:33;;;;;;;9.40;5.83;;;14.90;99.90;;;;;;5123167;27;20200;-42
2021/08/20 04:22:00;;;;;;;10.60;6.13;;;14.80;99.90;;;;;;5104120;27;20621;-44
2021/08/20 04:24:28;;;;;;;12.37;6.60;;;14.90;99.90;;;;;;5121586;27;20763;-47
2021/08/20 04:27:01;;;;;;;12.93;7.67;;;14.80;99.90;;;;;;5113939;27;20674;-42
2021/08/20 04:29:53;;;;;;;8.90;6.30;;;14.90;99.90;;;;;;5100962;28;20262;-43
2021/08/20 04:32:39;;;;;;;11.73;6.43;;;14.80;99.90;;;;;;5099864;28;20200;-42
2021/08/20 04:35:25;;;;;;;9.70;6.47;;;14.80;99.90;;;;;;5101858;28;20283;-49
2021/08/20 04:38:10;;;;;;;10.30;6.07;;;14.90;99.90;;;;;;5096354;27;20201;-42
2021/08/20 04:40:51;;;;;;;15.03;8.27;;;14.90;99.90;;;;;;5120937;27;20843;-42
2021/08/20 04:43:53;;;;;;;11.13;7.10;;;14.90;99.90;;;;;;5104543;27;20196;-42
2021/08/20 04:46:47;;;;;;;10.97;6.63;;;14.90;99.90;;;;;;5095285;27;20201;-42
2021/08/20 04:49:48;;;;;;;13.37;7.27;;;15.00;99.90;;;;;;5100091;28;20209;-42
2021/08/20 04:52:44;;;;;;;13.30;6.20;;;14.90;99.90;;;;;;5103211;27;20212;-46
2021/08/20 04:55:29;;;;;;;9.50;5.80;;;15.10;99.90;;;;;;5123117;27;20292;-46
2021/08/20 04:57:56;;;;;;;12.63;6.30;;;14.90;99.90;;;;;;5123239;27;20181;-48
2021/08/20 05:00:23;;;;;;;10.53;5.97;;;14.90;99.90;;;;;;5116403;27;20224;-48
2021/08/20 05:02:50;;;;;;;11.50;6.90;;;14.90;99.90;;;;;;5122093;27;20185;-42
2021/08/20 05:05:17;;;;;;;11.50;5.97;;;14.90;99.90;;;;;;5124679;27;20315;-46
2021/08/20 05:07:44;;;;;;;10.37;6.80;;;14.90;99.90;;;;;;5102023;27;20209;-44
2021/08/20 05:10:12;;;;;;;13.97;8.43;;;15.00;99.90;;;;;;5109526;27;20220;-45
2021/08/20 05:12:40;;;;;;;12.10;9.13;;;14.90;99.90;;;;;;5121656;27;20192;-48
2021/08/20 05:15:08;;;;;;;8.47;6.43;;;14.90;99.90;;;;;;5115036;27;20202;-45
2021/08/20 05:17:35;;;;;;;12.30;7.70;;;15.00;99.90;;;;;;5101138;28;20545;-44
2021/08/20 05:20:03;;;;;;;8.33;5.90;;;15.00;99.90;;;;;;5105628;28;20209;-45
2021/08/20 05:22:45;;;;;;;8.17;5.37;;;14.90;99.90;;;;;;5116267;27;20215;-49
2021/08/20 05:25:12;;;;;;;6.47;5.20;;;14.90;99.90;;;;;;5107149;27;20550;-49
2021/08/20 05:27:39;;;;;;;7.50;5.20;;;14.90;99.90;;;;;;5103757;27;20213;-44
2021/08/20 05:30:06;;;;;;;9.13;5.70;;;15.10;99.90;;;;;;5102695;27;20212;-44
2021/08/20 05:32:33;;;;;;;7.23;4.70;;;15.00;99.90;;;;;;5098452;27;20196;-43
2021/08/20 05:34:59;;;;;;;8.97;5.57;;;15.10;99.90;;;;;;5123817;27;20240;-46
2021/08/20 05:37:27;;;;;;;9.87;5.23;;;15.00;99.90;;;;;;5129932;27;20208;-42
2021/08/20 05:39:54;;;;;;;7.63;4.97;;;15.00;99.90;;;;;;5121937;27;20224;-44
2021/08/20 05:42:20;;;;;;;10.90;6.23;;;15.10;99.90;;;;;;5112350;27;20684;-44
2021/08/20 05:44:47;;;;;;;6.50;5.13;;;14.90;99.90;;;;;;5115159;27;20201;-42
2021/08/20 05:47:14;;;;;;;8.67;4.90;;;15.00;99.90;;;;;;5113931;27;20197;-47
2021/08/20 05:49:40;;;;;;;10.47;6.03;;;14.80;99.90;;;;;;5126106;27;20212;-43
2021/08/20 05:52:08;;;;;;;7.37;5.73;;;14.80;99.90;;;;;;5115086;27;20227;-45
2021/08/20 05:54:35;;;;;;;10.33;5.90;;;15.00;99.90;;;;;;5125556;27;20200;-42
2021/08/20 05:57:02;;;;;;;8.67;5.83;;;14.90;99.90;;;;;;5118229;27;20231;-45
2021/08/20 05:59:29;;;;;;;7.17;5.60;;;15.00;99.90;;;;;;5122506;27;20207;-44
2021/08/20 06:01:55;;;;;;;7.27;5.80;;;14.90;99.90;;;;;;5116298;27;20576;-43
2021/08/20 06:04:22;;;;;;;8.57;5.73;;;15.00;99.90;;;;;;5112648;27;20287;-46
2021/08/20 06:06:49;;;;;;;13.80;7.17;;;14.90;99.90;;;;;;5125920;27;20302;-47
2021/08/20 06:09:16;;;;;;;9.07;6.43;;;14.90;99.90;;;;;;5121752;27;20217;-44
2021/08/20 06:11:44;;;;;;;10.43;6.20;;;15.00;99.90;;;;;;5113751;27;20204;-45
2021/08/20 06:14:11;;;;;;;9.93;5.60;;;15.00;99.90;;;;;;5126196;27;20188;-44
2021/08/20 06:16:38;;;;;;;7.17;5.90;;;15.10;99.90;;;;;;5114523;27;20701;-42
2021/08/20 06:19:04;;;;;;;7.80;5.73;;;15.10;99.90;;;;;;5117359;27;20216;-46
2021/08/20 06:21:31;;;;;;;8.73;6.13;;;15.10;99.90;;;;;;5117504;27;20240;-43
2021/08/20 06:23:57;;;;;;;8.43;5.97;;;15.00;99.90;;;;;;5108675;27;20243;-43
2021/08/20 06:26:24;;;;;;;10.93;6.80;;;15.00;99.90;;;;;;5117156;27;20219;-46
2021/08/20 06:28:52;;;;;;;10.67;7.30;;;15.00;99.90;;;;;;5109215;27;20223;-43
2021/08/20 06:31:22;;;;;;;11.20;6.70;;;15.00;99.90;;;;;;5116819;27;20224;-43
2021/08/20 06:33:50;;;;;;;11.53;6.97;;;15.00;99.90;;;;;;5112810;27;20205;-46
2021/08/20 06:36:16;;;;;;;13.73;7.93;;;15.10;99.90;;;;;;5106018;27;20185;-40
2021/08/20 06:38:43;;;;;;;11.50;6.23;;;15.00;99.90;;;;;;5116931;27;20185;-46
2021/08/20 06:41:10;;;;;;;11.00;7.03;;;15.20;99.90;;;;;;5108380;27;20237;-46
2021/08/20 06:43:36;;;;;;;9.87;6.70;;;15.20;99.90;;;;;;5100764;27;20196;-41
2021/08/20 06:46:04;;;;;;;9.23;6.80;;;15.10;99.90;;;;;;5126075;27;20681;-44
2021/08/20 06:48:31;;;;;;;8.30;6.43;;;15.20;99.90;;;;;;5111777;27;20630;-50
2021/08/20 06:50:57;;;;;;;8.73;7.00;;;15.30;99.90;;;;;;5117884;27;20220;-43
2021/08/20 06:53:24;;;;;;;9.40;6.63;;;15.40;99.90;;;;;;5129891;27;20193;-43
2021/08/20 06:55:51;;;;;;;9.43;6.77;;;15.40;99.90;;;;;;5139985;27;20203;-44
2021/08/20 06:58:17;;;;;;;9.30;7.67;;;15.40;99.90;;;;;;5099102;27;20196;-46
2021/08/20 07:00:44;;;;;;;11.17;9.00;;;15.40;99.90;;;;;;5126834;27;20223;-43
2021/08/20 07:03:12;;;;;;;14.73;10.07;;;15.30;99.90;;;;;;5101181;27;21629;-44
2021/08/20 07:05:38;;;;;;;12.97;9.73;;;15.50;99.90;;;;;;5111547;27;20752;-44
2021/08/20 07:08:07;;;;;;;13.67;8.93;;;15.60;99.90;;;;;;5119389;27;20223;-44
2021/08/20 07:10:34;;;;;;;13.17;9.57;;;15.50;99.90;;;;;;5118287;27;20235;-43
2021/08/20 07:13:00;;;;;;;10.47;9.37;;;15.50;99.90;;;;;;5103746;27;20192;-46
2021/08/20 07:15:27;;;;;;;13.53;10.77;;;15.40;99.90;;;;;;5111011;27;20200;-45
2021/08/20 07:17:54;;;;;;;13.77;10.83;;;15.50;99.90;;;;;;5115510;27;20677;-49
2021/08/20 07:20:21;;;;;;;445.87;74.67;;;15.60;99.90;;;;;;5100708;27;20216;-43
2021/08/20 07:22:48;;;;;;;28.37;11.93;;;15.60;99.90;;;;;;5117703;27;20209;-43
2021/08/20 07:25:15;;;;;;;220.17;40.03;;;15.70;99.90;;;;;;5103507;27;20796;-43
2021/08/20 07:27:41;;;;;;;199.83;31.53;;;15.70;99.90;;;;;;5119397;27;20208;-46
2021/08/20 07:30:09;;;;;;;11.57;9.60;;;15.80;99.90;;;;;;5106035;27;20212;-43
2021/08/20 07:32:35;;;;;;;10.63;8.83;;;15.90;99.90;;;;;;5119241;27;20193;-46
2021/08/20 07:35:02;;;;;;;12.77;10.77;;;16.00;99.90;;;;;;5107567;27;20569;-51
2021/08/20 07:37:30;;;;;;;12.47;10.00;;;16.10;99.90;;;;;;5114126;27;20913;-43
2021/08/20 07:39:57;;;;;;;12.93;8.83;;;16.10;99.90;;;;;;5123519;27;20693;-50
2021/08/20 07:42:23;;;;;;;10.93;8.93;;;16.00;99.90;;;;;;5109431;27;20203;-44
2021/08/20 07:44:50;;;;;;;76.87;16.63;;;16.10;99.90;;;;;;5122249;27;20197;-43
2021/08/20 07:47:16;;;;;;;12.77;8.57;;;16.30;99.90;;;;;;5101090;27;20204;-43
2021/08/20 07:49:43;;;;;;;9.43;8.10;;;16.40;99.90;;;;;;5121041;27;20713;-44
2021/08/20 07:52:10;;;;;;;8.83;7.73;;;16.40;99.90;;;;;;5108734;27;20221;-42
2021/08/20 07:54:38;;;;;;;9.27;8.30;;;16.20;99.90;;;;;;5104373;27;20208;-44
2021/08/20 07:57:05;;;;;;;12.30;8.90;;;16.20;99.90;;;;;;5107004;27;20207;-45
2021/08/20 07:59:32;;;;;;;9.13;7.93;;;16.20;99.90;;;;;;5107711;27;20848;-45
2021/08/20 08:01:58;;;;;;;8.07;7.13;;;16.20;99.90;;;;;;5102551;27;20568;-46
2021/08/20 08:04:25;;;;;;;9.47;7.50;;;16.20;99.90;;;;;;5116576;27;20197;-44
2021/08/20 08:06:51;;;;;;;8.33;7.50;;;16.30;99.90;;;;;;5099228;27;20197;-43
2021/08/20 08:09:18;;;;;;;9.00;7.73;;;16.40;99.90;;;;;;5111419;27;20235;-44
2021/08/20 08:11:46;;;;;;;7.47;6.77;;;16.40;99.90;;;;;;5112337;27;20199;-46
2021/08/20 08:14:13;;;;;;;8.63;7.13;;;16.50;99.90;;;;;;5118289;27;20561;-49
2021/08/20 08:16:41;;;;;;;9.60;7.60;;;16.50;99.90;;;;;;5091996;27;21032;-46
2021/08/20 08:19:09;;;;;;;8.37;7.30;;;16.40;99.90;;;;;;5117791;27;20201;-43
2021/08/20 08:21:36;;;;;;;9.40;6.87;;;16.40;99.90;;;;;;5110300;27;20237;-43
2021/08/20 08:24:04;;;;;;;7.87;7.00;;;;;;;;;;5119571;27;20203;-43
2021/08/20 08:26:31;;;;;;;6.87;5.30;;;;;;;;;;5113409;27;20204;-46
2021/08/20 08:29:00;;;;;;;5.33;4.80;;;;;;;;;;5108547;27;20213;-46
2021/08/20 08:31:28;;;;;;;4.43;3.47;;;;;;;;;;5105192;27;20757;-48
2021/08/20 08:33:56;;;;;;;2.77;2.50;;;;;;;;;;5110862;27;20708;-44
2021/08/20 08:36:24;;;;;;;9.63;3.50;;;;;;;;;;5115638;27;20583;-43
2021/08/20 08:38:53;;;;;;;7.17;3.50;;;;;;;;;;5107808;27;20198;-44
2021/08/20 08:41:22;;;;;;;3.40;3.10;;;;;;;;;;5097609;27;20225;-44
2021/08/20 08:43:50;;;;;;;5.10;3.43;;;;;;;;;;5111717;27;20193;-43
2021/08/20 08:46:22;;;;;;;4.80;4.40;;;;;;;;;;5099268;27;20197;-43
2021/08/20 08:48:50;;;;;;;4.63;4.23;;;16.70;99.90;;;;;;5095208;27;20228;-50
2021/08/20 08:51:19;;;;;;;4.40;4.00;;;16.80;99.90;;;;;;5111126;27;20212;-45
2021/08/20 08:53:45;;;;;;;4.13;3.77;;;16.80;99.90;;;;;;5106629;27;20205;-42
2021/08/20 08:56:12;;;;;;;3.33;3.07;;;16.80;99.90;;;;;;5112257;27;20189;-43
2021/08/20 08:58:38;;;;;;;3.20;2.83;;;16.80;99.90;;;;;;5116320;27;20212;-47
2021/08/20 09:01:28;;;;;;;3.50;3.20;;;16.80;99.90;;;;;;5103619;27;20217;-45
2021/08/20 09:04:08;;;;;;;5.10;3.37;;;16.80;99.90;;;;;;5094029;27;20215;-43
2021/08/20 09:06:39;;;;;;;4.80;4.30;;;16.70;99.90;;;;;;5111585;27;20197;-43
2021/08/20 09:09:07;;;;;;;3.83;3.53;;;16.70;99.90;;;;;;5110437;27;20205;-46
2021/08/20 09:11:34;;;;;;;3.63;3.33;;;16.80;99.90;;;;;;5107075;27;20298;-46
2021/08/20 09:14:00;;;;;;;3.73;3.43;;;16.80;99.90;;;;;;5108995;27;20189;-45
2021/08/20 09:16:37;;;;;;;5.10;4.13;;;16.80;99.90;;;;;;5108144;27;20201;-45
2021/08/20 09:19:15;;;;;;;4.50;4.10;;;16.80;99.90;;;;;;5091167;27;20208;-44
2021/08/20 09:21:43;;;;;;;4.33;3.93;;;16.90;99.90;;;;;;5105172;27;20591;-46
2021/08/20 09:24:32;;;;;;;5.23;4.73;;;17.00;99.90;;;;;;5102591;27;20673;-64
2021/08/20 09:27:17;;;;;;;4.63;4.23;;;17.00;99.90;;;;;;5109450;27;20203;-63
2021/08/20 09:30:03;;;;;;;7.67;6.37;;;17.10;99.90;;;;;;5111974;27;20244;-63
2021/08/20 09:32:32;;;;;;;7.07;6.20;;;17.10;99.90;;;;;;5106966;27;20202;-64
2021/08/20 09:34:58;;;;;;;8.87;6.87;;;17.10;99.90;;;;;;5095384;27;20200;-64
2021/08/20 09:37:26;;;;;;;8.40;6.43;;;17.10;99.90;;;;;;5117960;27;20189;-60
2021/08/20 09:39:58;;;;;;;9.73;6.90;;;17.20;99.90;;;;;;5112264;27;20250;-64
2021/08/20 09:42:25;;;;;;;6.67;5.97;;;17.30;99.90;;;;;;5122368;27;20550;-64
2021/08/20 09:45:15;;;;;;;7.40;6.20;;;17.40;99.90;;;;;;5102739;27;20959;-63
2021/08/20 09:47:44;;;;;;;6.87;5.53;;;17.50;99.90;;;;;;5109780;27;20224;-47
2021/08/20 09:50:11;;;;;;;7.37;6.10;;;17.60;99.90;;;;;;5094520;27;20212;-65
2021/08/20 09:52:38;;;;;;;6.57;5.70;;;17.60;99.90;;;;;;5111968;27;20196;-61
2021/08/20 09:55:05;;;;;;;6.53;5.47;;;17.40;99.90;;;;;;5114214;27;20324;-65
2021/08/20 09:57:33;;;;;;;7.03;6.23;;;17.40;99.90;;;;;;5119435;27;20197;-67
2021/08/20 10:00:01;;;;;;;7.00;6.30;;;17.40;99.90;;;;;;5110692;27;20920;-65
2021/08/20 10:02:29;;;;;;;7.83;5.93;;;17.40;99.90;;;;;;5110634;27;20193;-61
2021/08/20 10:04:59;;;;;;;6.90;6.20;;;17.40;99.90;;;;;;5100318;27;20216;-66
2021/08/20 10:07:27;;;;;;;8.67;6.60;;;17.30;99.90;;;;;;5112421;27;20700;-65
2021/08/20 10:09:55;;;;;;;12.40;6.67;;;17.30;99.90;;;;;;5097671;27;20229;-65
2021/08/20 10:12:23;;;;;;;10.33;7.13;;;17.30;99.90;;;;;;5117528;28;20203;-64
2021/08/20 10:14:51;;;;;;;8.60;7.17;;;17.30;99.90;;;;;;5115879;27;20208;-62
2021/08/20 10:17:18;;;;;;;10.33;8.43;;;17.30;99.90;;;;;;5117318;27;20197;-63
2021/08/20 10:19:45;;;;;;;10.73;8.53;;;17.20;99.90;;;;;;5107942;27;20225;-63
2021/08/20 10:22:14;;;;;;;9.27;8.07;;;17.20;99.90;;;;;;5094786;27;20575;-61
2021/08/20 10:24:41;;;;;;;12.50;9.00;;;17.30;99.90;;;;;;5104018;27;20208;-60
2021/08/20 10:27:09;;;;;;;9.10;7.53;;;17.30;99.90;;;;;;5112910;27;20205;-59
2021/08/20 10:29:40;;;;;;;10.03;7.80;;;17.30;99.90;;;;;;5108068;27;20216;-46
2021/08/20 10:32:09;;;;;;;9.17;8.00;;;17.40;99.90;;;;;;5111672;27;20204;-45
2021/08/20 10:34:37;;;;;;;11.57;8.10;;;17.40;99.90;;;;;;5108904;27;20224;-49
2021/08/20 10:37:05;;;;;;;11.47;8.53;;;17.40;99.90;;;;;;5117550;27;20212;-49
2021/08/20 10:39:34;;;;;;;11.00;7.63;;;17.50;99.90;;;;;;5099837;27;20200;-59
2021/08/20 10:42:06;;;;;;;11.10;8.23;;;17.40;99.90;;;;;;5116365;27;20208;-61
2021/08/20 10:44:38;;;;;;;9.83;8.07;;;17.50;99.90;;;;;;5110579;27;20208;-61
2021/08/20 10:47:05;;;;;;;10.07;8.37;;;17.50;99.90;;;;;;5126912;27;20212;-57
2021/08/20 10:49:46;;;;;;;11.03;7.73;;;17.60;99.90;;;;;;5116453;27;21313;-59
2021/08/20 10:52:34;;;;;;;9.30;7.10;;;17.50;99.90;;;;;;5109521;27;20283;-57
2021/08/20 10:55:11;;;;;;;9.10;7.73;;;17.40;99.90;;;;;;5123585;27;20192;-58
2021/08/20 10:58:13;;;;;;;9.70;7.87;;;17.40;99.90;;;;;;5114845;27;20206;-57
2021/08/20 11:00:43;;;;;;;19.20;8.43;;;17.40;99.90;;;;;;5108802;27;20285;-58
2021/08/20 11:03:11;;;;;;;9.43;7.60;;;17.40;99.90;;;;;;5113215;27;20197;-57
2021/08/20 11:05:40;;;;;;;11.63;8.37;;;17.40;99.90;;;;;;5116697;27;20220;-45
2021/08/20 11:08:42;;;;;;;8.20;6.67;;;17.50;99.90;;;;;;5096975;27;20568;-43
2021/08/20 11:11:44;;;;;;;9.20;7.67;;;17.60;99.90;;;;;;5118164;27;20212;-47
2021/08/20 11:14:29;;;;;;;8.53;7.53;;;17.80;99.90;;;;;;5104592;27;20201;-48
2021/08/20 11:16:56;;;;;;;8.50;7.70;;;17.90;99.90;;;;;;5104549;27;20770;-47
2021/08/20 11:19:45;;;;;;;11.70;8.37;;;18.00;99.90;;;;;;5127009;27;20207;-60
2021/08/20 11:22:15;;;;;;;10.03;8.00;;;17.90;99.90;;;;;;5107594;27;20667;-60
2021/08/20 11:25:09;;;;;;;9.43;7.87;;;17.90;99.90;;;;;;5110950;27;20212;-59
2021/08/20 11:27:39;;;;;;;10.63;8.17;;;18.00;99.90;;;;;;5119902;27;20201;-43
2021/08/20 11:30:06;;;;;;;9.27;7.50;;;18.10;99.90;;;;;;5102087;27;20213;-48
2021/08/20 11:32:33;;;;;;;9.10;8.20;;;18.10;99.90;;;;;;5114184;27;20246;-44
2021/08/20 11:35:00;;;;;;;14.23;10.33;;;18.10;99.90;;;;;;5103570;28;20193;-43
2021/08/20 11:37:26;;;;;;;9.97;8.50;;;18.30;99.90;;;;;;5102609;27;20209;-44
2021/08/20 11:40:06;;;;;;;10.17;9.17;;;18.40;99.90;;;;;;5109563;27;20208;-44
2021/08/20 11:42:33;;;;;;;11.73;8.90;;;18.60;99.90;;;;;;5116235;27;20535;-44
2021/08/20 11:45:19;;;;;;;12.33;8.57;;;18.60;99.90;;;;;;5114927;27;20250;-42
2021/08/20 11:47:45;;;;;;;10.50;9.37;;;18.60;99.90;;;;;;5106120;27;20208;-49
2021/08/20 11:50:13;;;;;;;10.57;9.30;;;18.50;99.90;;;;;;5114379;27;20225;-42
2021/08/20 11:52:47;;;;;;;9.53;8.53;;;18.50;99.90;;;;;;5104692;27;20654;-48
2021/08/20 11:55:16;;;;;;;9.30;8.20;;;18.40;99.90;;;;;;5107438;27;20674;-44
2021/08/20 11:57:43;;;;;;;8.60;7.80;;;18.50;99.90;;;;;;5108201;27;20201;-46
2021/08/20 12:00:10;;;;;;;8.13;6.60;;;18.40;99.90;;;;;;5104707;27;20208;-43
2021/08/20 12:02:38;;;;;;;7.27;6.53;;;18.30;99.90;;;;;;5123244;27;20185;-48
2021/08/20 12:05:19;;;;;;;6.40;5.90;;;18.20;99.90;;;;;;5112989;27;20207;-42
2021/08/20 12:07:47;;;;;;;6.97;5.73;;;18.20;99.90;;;;;;5114883;27;20215;-46
2021/08/20 12:10:16;;;;;;;11.97;6.73;;;18.30;99.90;;;;;;5119502;27;20209;-45
2021/08/20 12:12:44;;;;;;;7.20;5.93;;;18.40;99.90;;;;;;5115616;27;20223;-43
2021/08/20 12:15:12;;;;;;;6.87;6.27;;;18.50;99.90;;;;;;5115020;27;20566;-51
2021/08/20 12:17:40;;;;;;;7.83;6.93;;;18.70;99.90;;;;;;5101799;27;20214;-43
2021/08/20 12:20:22;;;;;;;7.27;6.17;;;18.90;99.90;;;;;;5115606;27;20220;-48
2021/08/20 12:22:52;;;;;;;7.40;6.60;;;18.80;99.90;;;;;;5106852;27;20193;-48
2021/08/20 12:25:21;;;;;;;8.83;6.97;;;18.70;99.90;;;;;;5128325;27;20200;-47
2021/08/20 12:27:49;;;;;;;7.13;6.33;;;18.60;99.90;;;;;;5107409;27;20205;-43
2021/08/20 12:30:16;;;;;;;7.13;6.30;;;18.70;99.90;;;;;;5116041;27;20565;-45
2021/08/20 12:32:54;;;;;;;7.67;6.97;;;18.70;99.90;;;;;;5106417;27;20282;-47
2021/08/20 12:35:22;;;;;;;7.73;7.03;;;18.80;99.90;;;;;;5097351;27;20197;-45
2021/08/20 12:38:08;;;;;;;6.40;5.80;;;18.90;99.90;;;;;;5109969;27;20812;-50
2021/08/20 12:40:40;;;;;;;4.57;4.17;;;19.00;99.90;;;;;;5119191;27;20201;-48
2021/08/20 12:43:24;;;;;;;4.07;3.50;;;19.10;99.90;;;;;;5100048;27;20204;-44
2021/08/20 12:46:10;;;;;;;4.33;3.93;;;19.20;99.90;;;;;;5110419;27;20188;-42
2021/08/20 12:48:39;;;;;;;3.57;3.20;;;19.40;99.90;;;;;;5128782;27;20201;-47
2021/08/20 12:51:08;;;;;;;3.97;2.77;;;19.50;99.90;;;;;;5115592;27;20235;-43
2021/08/20 12:53:36;;;;;;;2.70;2.50;;;19.40;99.90;;;;;;5112076;27;20193;-46
2021/08/20 12:56:04;;;;;;;3.60;2.70;;;19.20;99.90;;;;;;5111147;27;20961;-44
2021/08/20 12:58:33;;;;;;;3.93;3.07;;;19.00;99.90;;;;;;5100386;27;20212;-48
2021/08/20 13:01:01;;;;;;;2.80;2.60;;;18.90;99.90;;;;;;5110318;27;20217;-55
2021/08/20 13:03:28;;;;;;;3.03;2.80;;;18.80;99.90;;;;;;5106864;27;20664;-62